Time;durP1;ratioP1;P1;durP2;ratioP2;P2;SDS_P1;SDS_P2;PMS_P1;PMS_P2;Temp;Humidity;BMP_temperature;BMP_pressure;BME280_temperature;BME280_humidity;BME280_pressure;Samples;Min_cycle;Max_cycle;Signal;HPM_P1;HPM_P2
2023/03/21 09:26:00;;;;;;;15.85;7.70;;;;;;;;;;5051495;28;20466;-81
2023/03/21 09:28:26;;;;;;;15.35;7.88;;;;;;;;;;5050976;28;20117;-82
2023/03/21 09:30:54;;;;;;;13.48;7.32;;;;;;;;;;5050669;28;20040;-85
2023/03/21 09:33:20;;;;;;;13.70;8.05;;;;;;;;;;5054366;28;20033;-82
2023/03/21 09:35:46;;;;;;;13.32;7.55;;;;;;;;;;5053467;28;20060;-83
2023/03/21 09:38:12;;;;;;;14.45;7.32;;;;;;;;;;5052710;28;20091;-81
2023/03/21 09:40:58;;;;;;;12.60;7.25;;;;;;;;;;5051978;28;20131;-83
2023/03/21 09:43:32;;;;;;;14.57;7.63;;;;;;;;;;5050474;28;20454;-84
2023/03/21 09:46:02;;;;;;;13.63;8.27;;;;;;;;;;5051309;28;20059;-84
2023/03/21 09:48:34;;;;;;;13.18;7.28;;;;;;;;;;5050684;28;20394;-92
2023/03/21 09:51:01;;;;;;;14.25;6.90;;;;;;;;;;5051012;28;20045;-85
2023/03/21 09:53:32;;;;;;;12.25;7.45;;;;;;;;;;5055933;28;20393;-83
2023/03/21 09:56:00;;;;;;;13.73;7.00;;;;;;;;;;5056153;28;20474;-86
2023/03/21 09:58:29;;;;;;;14.65;7.32;;;;;;;;;;5043600;28;20018;-84
2023/03/21 10:01:21;;;;;;;10.35;6.95;;;;;;;;;;5071036;28;20017;-83
2023/03/21 10:03:48;;;;;;;14.27;7.15;;;;;;;;;;5058875;28;20013;-87
2023/03/21 10:06:15;;;;;;;18.75;7.93;;;;;;;;;;5058443;28;20089;-85
2023/03/21 10:08:44;;;;;;;18.33;7.68;;;;;;;;;;5049022;28;20026;-89
2023/03/21 10:11:13;;;;;;;12.35;6.90;;;;;;;;;;5050358;28;20062;-82
2023/03/21 10:13:42;;;;;;;10.75;6.78;;;;;;;;;;5049403;28;20079;-81
2023/03/21 10:16:14;;;;;;;16.15;7.50;;;;;;;;;;5048734;28;20375;-84
2023/03/21 10:18:41;;;;;;;20.42;7.97;;;;;;;;;;5048113;28;20269;-82
2023/03/21 10:21:13;;;;;;;16.85;7.35;;;;;;;;;;5047405;28;20037;-81
2023/03/21 10:23:39;;;;;;;13.38;7.22;;;;;;;;;;5049305;28;20033;-87
2023/03/21 10:26:06;;;;;;;14.30;7.25;;;;;;;;;;5051918;28;20029;-85
2023/03/21 10:28:37;;;;;;;17.38;7.20;;;;;;;;;;5053860;28;20573;-83
2023/03/21 10:31:06;;;;;;;12.65;7.03;;;;;;;;;;5057536;28;20025;-85
2023/03/21 10:33:34;;;;;;;13.23;6.82;;;;;;;;;;5056149;28;20140;-83
2023/03/21 10:36:02;;;;;;;16.83;6.63;;;;;;;;;;5048659;28;20459;-84
2023/03/21 10:38:29;;;;;;;14.95;6.40;;;;;;;;;;5040957;28;20029;-85
2023/03/21 10:40:55;;;;;;;18.83;7.03;;;;;;;;;;5040770;28;20057;-83
2023/03/21 10:46:06;;;;;;;12.77;7.38;;;;;;;;;;5064550;28;20412;-89
2023/03/21 10:48:34;;;;;;;13.88;7.80;;;;;;;;;;5077757;28;20029;-90
2023/03/21 10:51:01;;;;;;;14.95;8.07;;;;;;;;;;5065848;28;20410;-89
2023/03/21 10:53:29;;;;;;;14.00;7.85;;;;;;;;;;5064492;28;20040;-88
2023/03/21 10:55:56;;;;;;;12.02;7.55;;;;;;;;;;5082551;28;20025;-92
2023/03/21 10:58:26;;;;;;;11.25;7.40;;;;;;;;;;5068513;28;20087;-87
2023/03/21 11:01:02;;;;;;;11.70;7.72;;;;;;;;;;5069357;28;20048;-85
2023/03/21 11:03:35;;;;;;;12.40;7.68;;;;;;;;;;5059538;28;20036;-88
2023/03/21 11:08:47;;;;;;;12.75;7.68;;;;;;;;;;5080941;28;20410;-90
2023/03/21 11:11:20;;;;;;;15.70;7.07;;;;;;;;;;5081040;28;20059;-89
2023/03/21 11:13:46;;;;;;;11.85;7.47;;;;;;;;;;5078030;28;20029;-90
2023/03/21 11:16:22;;;;;;;12.50;7.45;;;;;;;;;;5072848;28;20021;-83
2023/03/21 11:18:52;;;;;;;12.63;7.22;;;;;;;;;;5081000;28;20407;-84
2023/03/21 11:21:20;;;;;;;10.32;6.43;;;;;;;;;;5072773;28;20075;-82
2023/03/21 11:23:48;;;;;;;10.27;7.15;;;;;;;;;;5076130;28;20029;-84
2023/03/21 11:26:26;;;;;;;10.20;7.35;;;;;;;;;;5072889;28;20025;-83
2023/03/21 11:28:53;;;;;;;9.23;6.60;;;;;;;;;;5076830;28;20080;-87
2023/03/21 11:31:19;;;;;;;9.63;6.68;;;;;;;;;;5078296;28;20024;-87
2023/03/21 11:33:52;;;;;;;9.18;6.20;;;;;;;;;;5078380;28;20150;-86
2023/03/21 11:39:02;;;;;;;8.85;6.30;;;;;;;;;;5078591;28;20367;-82
2023/03/21 11:41:29;;;;;;;8.25;6.30;;;;;;;;;;5078805;28;20024;-83
2023/03/21 11:43:56;;;;;;;12.57;6.80;;;;;;;;;;5075487;28;20025;-82
2023/03/21 11:46:23;;;;;;;10.35;6.72;;;;;;;;;;5072641;28;20060;-82
2023/03/21 11:48:49;;;;;;;11.05;6.63;;;;;;;;;;5072394;28;20092;-82
2023/03/21 11:51:26;;;;;;;11.20;6.22;;;;;;;;;;5074096;28;20036;-83
2023/03/21 11:56:42;;;;;;;11.52;6.28;;;;;;;;;;5067747;28;20445;-79
2023/03/21 12:02:06;;;;;;;13.15;6.50;;;;;;;;;;5088914;28;20492;-80
2023/03/21 12:07:15;;;;;;;10.45;5.90;;;;;;;;;;5069946;28;20433;-80
2023/03/21 12:09:43;;;;;;;9.90;6.25;;;;;;;;;;5074138;28;20548;-84
2023/03/21 12:12:15;;;;;;;11.02;6.10;;;;;;;;;;5071185;28;20033;-81
2023/03/21 12:14:50;;;;;;;12.25;6.55;;;;;;;;;;5074492;28;20093;-83
2023/03/21 12:17:23;;;;;;;10.63;6.35;;;;;;;;;;5074158;28;20025;-85
2023/03/21 12:25:15;;;;;;;10.63;5.40;;;;;;;;;;5148548;27;20861;-82
2023/03/21 12:28:01;;;;;;;10.90;6.00;;;;;;;;;;5119094;28;20077;-90
2023/03/21 12:33:15;;;;;;;8.68;5.38;;;;;;;;;;5078267;28;20421;-88
2023/03/21 12:38:21;;;;;;;10.15;5.85;;;;;;;;;;5109236;27;20135;-92
2023/03/21 12:43:35;;;;;;;10.70;5.72;;;;;;;;;;5084447;27;20380;-83
2023/03/21 12:46:03;;;;;;;8.63;5.82;;;;;;;;;;5080370;28;20024;-90
2023/03/21 12:48:43;;;;;;;13.02;5.95;;;;;;;;;;5077409;28;20035;-88
2023/03/21 12:51:14;;;;;;;11.45;5.93;;;;;;;;;;5076529;28;20017;-93
2023/03/21 12:54:00;;;;;;;10.32;5.65;;;;;;;;;;5079354;28;20028;-91
2023/03/21 12:56:30;;;;;;;8.27;5.50;;;;;;;;;;5081946;28;20025;-89
2023/03/21 12:59:02;;;;;;;9.85;6.15;;;;;;;;;;5078188;28;20079;-88
2023/03/21 13:01:30;;;;;;;8.93;5.30;;;;;;;;;;5079081;28;20033;-90
2023/03/21 13:04:05;;;;;;;9.50;5.80;;;;;;;;;;5076954;28;20496;-84
2023/03/21 13:06:32;;;;;;;11.27;5.50;;;;;;;;;;5073992;28;20052;-86
2023/03/21 13:09:02;;;;;;;9.38;5.90;;;;;;;;;;5076022;28;20033;-87
2023/03/21 13:11:30;;;;;;;8.93;5.60;;;;;;;;;;5073140;28;20035;-86
2023/03/21 13:22:06;;;;;;;12.02;5.47;;;;;;;;;;5135457;27;20165;-84
2023/03/21 13:27:29;;;;;;;8.68;5.35;;;;;;;;;;5127848;27;20127;-89
2023/03/21 13:30:07;;;;;;;7.22;5.00;;;;;;;;;;5128643;28;20038;-81
2023/03/21 13:32:36;;;;;;;7.50;4.75;;;;;;;;;;5146314;27;20037;-86
2023/03/21 13:35:12;;;;;;;12.65;4.97;;;;;;;;;;5151954;27;20041;-89
2023/03/21 13:37:50;;;;;;;12.10;4.97;;;;;;;;;;5147638;28;20076;-93
2023/03/21 13:40:21;;;;;;;17.70;7.70;;;;;;;;;;5138793;28;20081;-93
2023/03/21 13:42:53;;;;;;;13.02;5.90;;;;;;;;;;5144768;28;20054;-89
2023/03/21 13:45:25;;;;;;;14.15;5.55;;;;;;;;;;5142073;27;20023;-89
2023/03/21 13:47:53;;;;;;;11.20;5.47;;;;;;;;;;5139641;28;20492;-87
2023/03/21 13:53:17;;;;;;;7.43;4.50;;;;;;;;;;5098027;28;20169;-89
2023/03/21 13:55:44;;;;;;;9.02;4.53;;;;;;;;;;5077875;28;20035;-91
2023/03/21 13:58:24;;;;;;;8.52;4.40;;;;;;;;;;5078294;28;20049;-87
2023/03/21 14:01:11;;;;;;;9.82;4.60;;;;;;;;;;5076184;28;20156;-87
2023/03/21 14:03:38;;;;;;;10.02;4.50;;;;;;;;;;5078094;28;20027;-89
2023/03/21 14:06:04;;;;;;;6.47;4.22;;;;;;;;;;5094522;28;20048;-87
2023/03/21 14:08:31;;;;;;;7.55;4.05;;;;;;;;;;5100128;28;20020;-89
2023/03/21 14:10:58;;;;;;;10.00;4.40;;;;;;;;;;5092294;28;20029;-88
2023/03/21 14:13:27;;;;;;;8.32;4.13;;;;;;;;;;5080423;28;20027;-91
2023/03/21 14:15:59;;;;;;;12.25;4.55;;;;;;;;;;5083595;28;20027;-89
2023/03/21 14:18:26;;;;;;;6.90;4.25;;;;;;;;;;5093064;28;20028;-88
2023/03/21 14:20:53;;;;;;;9.18;4.30;;;;;;;;;;5098341;28;20032;-88
2023/03/21 14:23:20;;;;;;;8.05;4.03;;;;;;;;;;5091937;28;20080;-88
2023/03/21 14:25:47;;;;;;;9.15;4.65;;;;;;;;;;5080944;28;20041;-86
2023/03/21 14:28:15;;;;;;;6.25;4.10;;;;;;;;;;5078268;28;20032;-85
2023/03/21 14:30:41;;;;;;;7.35;4.20;;;;;;;;;;5092316;28;20020;-87
2023/03/21 14:33:14;;;;;;;8.85;4.40;;;;;;;;;;5101638;28;20029;-89
2023/03/21 14:35:41;;;;;;;9.75;4.25;;;;;;;;;;5101485;28;20481;-90
2023/03/21 14:38:08;;;;;;;6.45;3.90;;;;;;;;;;5099706;28;20100;-88
2023/03/21 14:40:35;;;;;;;7.45;4.10;;;;;;;;;;5105231;28;20081;-91
2023/03/21 14:43:05;;;;;;;9.88;4.00;;;;;;;;;;5095481;28;20024;-90
2023/03/21 14:45:35;;;;;;;6.15;4.20;;;;;;;;;;5081312;28;20430;-88
2023/03/21 14:48:05;;;;;;;8.63;3.83;;;;;;;;;;5081708;28;20024;-77
2023/03/21 14:50:49;;;;;;;7.63;4.50;;;;;;;;;;5073028;28;20021;-77
2023/03/21 14:53:15;;;;;;;;;;;;;;;;;;5094894;28;20036;-76
2023/03/21 14:55:42;;;;;;;7.35;4.00;;;;;;;;;;5098131;28;19908;-74
2023/03/21 14:58:11;;;;;;;9.35;4.50;;;;;;;;;;5106326;28;20020;-75
2023/03/21 15:00:37;;;;;;;4.97;3.83;;;;;;;;;;5094308;28;20039;-75
2023/03/21 15:03:03;;;;;;;10.77;4.55;;;;;;;;;;5083470;28;20047;-74
2023/03/21 15:05:31;;;;;;;6.72;4.20;;;;;;;;;;5085897;28;20039;-76
2023/03/21 15:07:59;;;;;;;7.80;4.45;;;;;;;;;;5085978;28;20024;-78
2023/03/21 15:10:26;;;;;;;8.93;4.40;;;;;;;;;;5088756;28;20439;-77
2023/03/21 15:12:54;;;;;;;6.80;4.10;;;;;;;;;;5084120;28;20040;-79
2023/03/21 15:15:21;;;;;;;7.80;4.30;;;;;;;;;;5083449;28;20028;-81
2023/03/21 15:17:51;;;;;;;7.93;4.53;;;;;;;;;;5088714;28;20399;-78
2023/03/21 15:20:18;;;;;;;9.02;4.63;;;;;;;;;;5090996;28;20016;-75
2023/03/21 15:22:47;;;;;;;8.07;4.50;;;;;;;;;;5094543;28;20054;-80
2023/03/21 15:25:17;;;;;;;9.32;4.93;;;;;;;;;;5078348;28;20535;-75
2023/03/21 15:27:43;;;;;;;8.57;4.60;;;;;;;;;;5081200;28;20390;-75
2023/03/21 15:30:18;;;;;;;8.18;4.50;;;;;;;;;;5074613;28;20093;-76
2023/03/21 15:32:44;;;;;;;10.38;4.55;;;;;;;;;;5088886;28;20028;-77
2023/03/21 15:35:15;;;;;;;8.45;4.78;;;;;;;;;;5097968;28;20020;-79
2023/03/21 15:37:41;;;;;;;10.52;5.20;;;;;;;;;;5096036;28;20032;-73
2023/03/21 15:40:23;;;;;;;10.95;4.68;;;;;;;;;;5095105;28;20358;-77
2023/03/21 15:43:03;;;;;;;7.85;4.53;;;;;;;;;;5097902;28;20032;-80
2023/03/21 15:45:29;;;;;;;9.05;5.05;;;;;;;;;;5098512;28;20035;-78
2023/03/21 15:48:12;;;;;;;7.82;5.10;;;;;;;;;;5103437;28;20106;-83
2023/03/21 15:50:39;;;;;;;7.85;4.90;;;;;;;;;;5099140;28;20073;-79
2023/03/21 15:53:07;;;;;;;8.07;4.97;;;;;;;;;;5100224;28;20023;-81
2023/03/21 15:55:42;;;;;;;7.15;4.70;;;;;;;;;;5098670;28;20143;-78
2023/03/21 15:58:15;;;;;;;9.40;4.80;;;;;;;;;;5101129;28;20024;-81
2023/03/21 16:00:41;;;;;;;;;;;;;;;;;;5096262;28;20030;-80
2023/03/21 16:03:15;;;;;;;8.68;4.88;;;;;;;;;;5097056;28;19904;-81
2023/03/21 16:05:45;;;;;;;8.00;4.65;;;;;;;;;;5100159;28;20107;-84
2023/03/21 16:08:21;;;;;;;6.00;4.57;;;;;;;;;;5100204;28;20028;-82
2023/03/21 16:10:48;;;;;;;7.93;4.80;;;;;;;;;;5097535;28;20024;-81
2023/03/21 16:13:15;;;;;;;7.47;4.50;;;;;;;;;;5096397;28;20042;-82
2023/03/21 16:15:41;;;;;;;12.27;4.55;;;;;;;;;;5096433;28;20089;-80
2023/03/21 16:18:07;;;;;;;7.38;4.80;;;;;;;;;;5095251;28;20028;-78
2023/03/21 16:20:35;;;;;;;11.38;5.22;;;;;;;;;;5095226;28;20024;-79
2023/03/21 16:23:01;;;;;;;7.43;4.68;;;;;;;;;;5094309;28;20030;-78
2023/03/21 16:25:28;;;;;;;10.32;5.53;;;;;;;;;;5096214;28;20039;-78
2023/03/21 16:27:54;;;;;;;9.00;5.90;;;;;;;;;;5093712;28;20024;-79
2023/03/21 16:30:21;;;;;;;12.27;5.68;;;;;;;;;;5095535;28;20024;-78
2023/03/21 16:32:48;;;;;;;12.27;5.15;;;;;;;;;;5094249;28;20093;-77
2023/03/21 16:35:15;;;;;;;12.30;5.75;;;;;;;;;;5096031;28;20069;-78
2023/03/21 16:37:41;;;;;;;9.82;5.32;;;;;;;;;;5097119;28;20379;-79
2023/03/21 16:40:15;;;;;;;12.50;5.32;;;;;;;;;;5098589;28;20496;-80
2023/03/21 16:42:41;;;;;;;12.48;5.45;;;;;;;;;;5095926;28;20028;-80
2023/03/21 16:45:07;;;;;;;11.15;5.18;;;;;;;;;;5101060;28;20024;-79
2023/03/21 16:47:33;;;;;;;13.65;5.15;;;;;;;;;;5105413;28;20039;-79
2023/03/21 16:49:59;;;;;;;9.32;5.22;;;;;;;;;;5104463;28;20028;-79
2023/03/21 16:52:26;;;;;;;15.63;5.10;;;;;;;;;;5103533;28;20052;-82
2023/03/21 16:54:52;;;;;;;12.43;5.05;;;;;;;;;;5100211;28;20069;-83
2023/03/21 16:57:28;;;;;;;16.77;5.07;;;;;;;;;;5099650;28;20083;-82
2023/03/21 16:59:55;;;;;;;16.98;5.13;;;;;;;;;;5099997;28;20024;-80
2023/03/21 17:02:21;;;;;;;9.95;5.00;;;;;;;;;;5098533;28;20024;-81
2023/03/21 17:04:47;;;;;;;9.45;4.35;;;;;;;;;;5097203;28;20388;-81
2023/03/21 17:07:14;;;;;;;10.18;4.80;;;;;;;;;;5099087;28;20036;-80
2023/03/21 17:09:42;;;;;;;8.35;4.72;;;;;;;;;;5099722;28;20027;-81
2023/03/21 17:12:12;;;;;;;11.85;5.05;;;;;;;;;;5097963;28;20030;-78
2023/03/21 17:14:39;;;;;;;10.15;4.45;;;;;;;;;;5100625;28;20020;-79
2023/03/21 17:17:05;;;;;;;10.18;4.88;;;;;;;;;;5100250;28;20024;-81
2023/03/21 17:19:31;;;;;;;7.55;4.82;;;;;;;;;;5097999;28;20028;-76
2023/03/21 17:21:57;;;;;;;7.35;5.20;;;;;;;;;;5093941;28;20020;-78
2023/03/21 17:24:25;;;;;;;10.40;5.22;;;;;;;;;;5092383;28;20032;-80
2023/03/21 17:26:51;;;;;;;8.43;5.20;;;;;;;;;;5091840;28;20361;-81
2023/03/21 17:29:17;;;;;;;8.80;5.07;;;;;;;;;;5092234;28;20020;-79
2023/03/21 17:31:46;;;;;;;6.68;4.65;;;;;;;;;;5092355;28;20048;-78
2023/03/21 17:34:12;;;;;;;9.82;4.35;;;;;;;;;;5092571;28;20024;-78
2023/03/21 17:36:39;;;;;;;6.97;4.68;;;;;;;;;;5092469;28;20067;-80
2023/03/21 17:39:07;;;;;;;11.15;4.75;;;;;;;;;;5091338;28;20422;-79
2023/03/21 17:41:33;;;;;;;10.80;4.78;;;;;;;;;;5092006;28;20118;-78
2023/03/21 17:44:00;;;;;;;9.43;5.15;;;;;;;;;;5094028;28;20032;-79
2023/03/21 17:46:27;;;;;;;11.50;4.85;;;;;;;;;;5092601;28;20024;-78
2023/03/21 17:48:55;;;;;;;10.63;5.00;;;;;;;;;;5092121;28;20020;-79
2023/03/21 17:51:24;;;;;;;9.70;5.65;;;;;;;;;;5092233;28;20048;-78
2023/03/21 17:53:50;;;;;;;7.10;4.70;;;;;;;;;;5092330;28;20024;-79
2023/03/21 17:58:53;;;;;;;9.52;5.47;;;;;;;;;;5049073;28;20057;-79
2023/03/21 18:01:20;;;;;;;9.23;5.25;;;;;;;;;;5049163;28;20383;-79
2023/03/21 18:03:46;;;;;;;10.82;5.35;;;;;;;;;;5049126;28;20087;-79
2023/03/21 18:06:16;;;;;;;10.63;5.45;;;;;;;;;;5048842;28;20486;-80
2023/03/21 18:08:43;;;;;;;8.95;5.60;;;;;;;;;;5048244;28;20383;-79
2023/03/21 18:11:11;;;;;;;7.40;5.13;;;;;;;;;;5048653;28;20026;-77
2023/03/21 18:13:37;;;;;;;9.13;5.45;;;;;;;;;;5048066;28;20025;-79
2023/03/21 18:16:03;;;;;;;9.02;5.18;;;;;;;;;;5048228;28;20525;-79
2023/03/21 18:18:29;;;;;;;8.98;5.20;;;;;;;;;;5049113;28;20386;-79
2023/03/21 18:20:55;;;;;;;8.57;5.45;;;;;;;;;;5048534;28;20453;-80
2023/03/21 18:23:22;;;;;;;9.88;5.45;;;;;;;;;;5048161;28;20128;-79
2023/03/21 18:25:48;;;;;;;7.38;5.47;;;;;;;;;;5048409;28;20563;-80
2023/03/21 18:28:14;;;;;;;7.47;5.15;;;;;;;;;;5048117;28;20033;-79
2023/03/21 18:30:40;;;;;;;7.43;5.45;;;;;;;;;;5047949;28;20205;-80
2023/03/21 18:33:06;;;;;;;8.18;5.55;;;;;;;;;;5048352;28;20048;-81
2023/03/21 18:35:32;;;;;;;8.52;5.50;;;;;;;;;;5048358;28;20022;-85
2023/03/21 18:37:58;;;;;;;11.68;5.88;;;;;;;;;;5048438;28;20624;-80
2023/03/21 18:40:25;;;;;;;8.63;5.82;;;;;;;;;;5048164;28;20595;-81
2023/03/21 18:42:51;;;;;;;9.65;5.97;;;;;;;;;;5048289;28;20433;-80
2023/03/21 18:45:17;;;;;;;9.15;5.47;;;;;;;;;;5047847;28;20025;-79
2023/03/21 18:47:44;;;;;;;10.63;6.38;;;;;;;;;;5047395;28;20557;-79
2023/03/21 18:50:11;;;;;;;11.57;6.13;;;;;;;;;;5047510;28;20471;-78
2023/03/21 18:52:37;;;;;;;12.13;5.80;;;;;;;;;;5048038;28;20040;-78
2023/03/21 18:55:07;;;;;;;12.35;6.07;;;;;;;;;;5047867;28;20029;-79
2023/03/21 18:57:33;;;;;;;8.52;6.57;;;;;;;;;;5047425;28;20041;-81
2023/03/21 18:59:59;;;;;;;11.95;6.65;;;;;;;;;;5048066;28;20375;-76
2023/03/21 19:02:25;;;;;;;10.82;6.47;;;;;;;;;;5048153;28;20059;-79
2023/03/21 19:04:52;;;;;;;12.20;6.80;;;;;;;;;;5047728;28;20028;-80
2023/03/21 19:07:18;;;;;;;10.68;6.90;;;;;;;;;;5048235;28;20032;-76
2023/03/21 19:09:45;;;;;;;13.25;6.93;;;;;;;;;;5037177;28;20029;-77
2023/03/21 19:12:11;;;;;;;10.52;6.97;;;;;;;;;;5033633;28;20432;-77
2023/03/21 19:14:37;;;;;;;9.63;6.93;;;;;;;;;;5034106;28;20461;-78
2023/03/21 19:17:03;;;;;;;12.50;7.63;;;;;;;;;;5034656;28;20045;-79
2023/03/21 19:19:29;;;;;;;10.52;6.88;;;;;;;;;;5036124;28;20025;-78
2023/03/21 19:21:56;;;;;;;10.15;6.40;;;;;;;;;;5034620;28;20428;-79
2023/03/21 19:24:22;;;;;;;14.75;7.28;;;;;;;;;;5034019;28;20486;-78
2023/03/21 19:26:48;;;;;;;12.25;7.05;;;;;;;;;;5034015;28;20033;-79
2023/03/21 19:29:14;;;;;;;11.10;7.50;;;;;;;;;;5034715;28;20457;-79
2023/03/21 19:31:49;;;;;;;13.50;7.78;;;;;;;;;;5034393;28;20033;-83
2023/03/21 19:34:16;;;;;;;14.82;7.50;;;;;;;;;;5034671;28;20300;-80
2023/03/21 19:36:43;;;;;;;11.65;7.30;;;;;;;;;;5033930;28;20056;-81
2023/03/21 19:39:12;;;;;;;14.27;7.68;;;;;;;;;;5035058;28;20511;-88
2023/03/21 19:41:38;;;;;;;10.27;7.50;;;;;;;;;;5034492;28;20497;-79
2023/03/21 19:44:04;;;;;;;10.35;7.15;;;;;;;;;;5034730;28;20029;-79
2023/03/21 19:46:30;;;;;;;12.15;7.70;;;;;;;;;;5034778;28;20025;-79
2023/03/21 19:48:57;;;;;;;11.68;7.20;;;;;;;;;;5034738;28;20053;-79
2023/03/21 19:51:24;;;;;;;15.40;8.38;;;;;;;;;;5034444;28;20032;-75
2023/03/21 19:53:50;;;;;;;15.48;7.97;;;;;;;;;;5033867;28;20030;-77
2023/03/21 19:56:16;;;;;;;13.88;7.82;;;;;;;;;;5032419;28;20021;-75
2023/03/21 19:58:43;;;;;;;11.32;7.28;;;;;;;;;;5032741;28;20060;-75
2023/03/21 20:01:10;;;;;;;15.85;8.13;;;;;;;;;;5034577;28;20037;-78
2023/03/21 20:03:37;;;;;;;14.05;7.70;;;;;;;;;;5035530;28;20040;-75
2023/03/21 20:06:04;;;;;;;13.77;7.97;;;;;;;;;;5034459;28;20040;-77
2023/03/21 20:08:30;;;;;;;18.25;7.90;;;;;;;;;;5033387;28;20062;-77
2023/03/21 20:10:56;;;;;;;17.33;8.55;;;;;;;;;;5033330;28;20052;-75
2023/03/21 20:13:22;;;;;;;14.30;7.60;;;;;;;;;;5033643;28;20022;-76
2023/03/21 20:15:49;;;;;;;15.45;7.72;;;;;;;;;;5033418;28;20021;-76
2023/03/21 20:18:15;;;;;;;12.40;7.72;;;;;;;;;;5033395;28;20034;-75
2023/03/21 20:20:41;;;;;;;12.30;7.85;;;;;;;;;;5031971;28;20064;-76
2023/03/21 20:23:07;;;;;;;16.48;8.13;;;;;;;;;;5033497;28;20049;-75
2023/03/21 20:25:33;;;;;;;16.67;7.72;;;;;;;;;;5032354;28;20029;-75
2023/03/21 20:27:59;;;;;;;12.20;7.30;;;;;;;;;;5032712;28;20073;-75
2023/03/21 20:30:25;;;;;;;15.23;7.85;;;;;;;;;;5033134;28;20041;-76
2023/03/21 20:32:51;;;;;;;10.85;7.10;;;;;;;;;;5032679;28;20514;-73
2023/03/21 20:35:18;;;;;;;10.38;6.68;;;;;;;;;;5031741;28;20029;-74
2023/03/21 20:37:48;;;;;;;11.93;7.40;;;;;;;;;;5031745;28;20040;-75
2023/03/21 20:40:14;;;;;;;12.88;7.88;;;;;;;;;;5032688;28;20105;-75
2023/03/21 20:42:42;;;;;;;12.15;7.40;;;;;;;;;;5032575;28;20029;-74
2023/03/21 20:45:10;;;;;;;11.98;6.95;;;;;;;;;;5041968;28;20060;-74
2023/03/21 20:47:37;;;;;;;10.98;7.05;;;;;;;;;;5041283;28;20033;-75
2023/03/21 20:50:03;;;;;;;10.70;6.43;;;;;;;;;;5033081;28;20036;-74
2023/03/21 20:52:29;;;;;;;9.35;6.60;;;;;;;;;;5032867;28;20044;-73
2023/03/21 20:54:56;;;;;;;12.18;7.18;;;;;;;;;;5032270;28;20037;-74
2023/03/21 20:57:25;;;;;;;11.23;6.32;;;;;;;;;;5031641;28;20060;-74
2023/03/21 20:59:51;;;;;;;8.82;6.13;;;;;;;;;;5031525;28;20022;-75
2023/03/21 21:02:17;;;;;;;8.57;6.53;;;;;;;;;;5031513;28;20049;-75
2023/03/21 21:04:43;;;;;;;9.23;5.93;;;;;;;;;;5032007;28;20103;-75
2023/03/21 21:07:14;;;;;;;10.35;5.85;;;;;;;;;;5031397;28;20033;-74
2023/03/21 21:09:40;;;;;;;8.05;5.85;;;;;;;;;;5031889;28;20021;-75
2023/03/21 21:12:06;;;;;;;9.45;5.80;;;;;;;;;;5032369;28;20037;-75
2023/03/21 21:14:34;;;;;;;8.45;5.38;;;;;;;;;;5032035;28;20032;-74
2023/03/21 21:17:01;;;;;;;9.75;5.78;;;;;;;;;;5032130;28;20117;-74
2023/03/21 21:19:27;;;;;;;10.95;6.15;;;;;;;;;;5032196;28;20368;-76
2023/03/21 21:21:53;;;;;;;9.48;6.10;;;;;;;;;;5032083;28;20026;-75
2023/03/21 21:24:19;;;;;;;7.85;5.80;;;;;;;;;;5032128;28;20033;-75
2023/03/21 21:26:45;;;;;;;7.68;5.50;;;;;;;;;;5031706;28;20025;-75
2023/03/21 21:29:15;;;;;;;9.23;5.30;;;;;;;;;;5031595;28;20022;-75
2023/03/21 21:31:41;;;;;;;8.13;5.38;;;;;;;;;;5031002;28;20029;-75
2023/03/21 21:34:07;;;;;;;10.00;5.50;;;;;;;;;;5032352;28;20434;-75
2023/03/21 21:36:33;;;;;;;7.55;5.65;;;;;;;;;;5031516;28;20022;-74
2023/03/21 21:38:59;;;;;;;9.75;5.85;;;;;;;;;;5031629;28;20064;-74
2023/03/21 21:41:25;;;;;;;8.98;6.22;;;;;;;;;;5031852;28;20029;-75
2023/03/21 21:43:51;;;;;;;9.68;5.68;;;;;;;;;;5031916;28;20029;-74
2023/03/21 21:46:17;;;;;;;7.88;5.47;;;;;;;;;;5031910;28;20021;-75
2023/03/21 21:48:44;;;;;;;10.32;6.32;;;;;;;;;;5031725;28;20033;-74
2023/03/21 21:51:10;;;;;;;10.48;5.70;;;;;;;;;;5031930;28;20033;-74
2023/03/21 21:53:37;;;;;;;10.73;6.15;;;;;;;;;;5031542;28;20043;-75
2023/03/21 21:56:05;;;;;;;8.05;5.47;;;;;;;;;;5031717;28;20025;-76
2023/03/21 21:58:44;;;;;;;10.65;6.05;;;;;;;;;;5031210;28;20123;-75
2023/03/21 22:01:11;;;;;;;10.45;5.57;;;;;;;;;;5032115;28;20018;-76
2023/03/21 22:03:40;;;;;;;7.95;5.70;;;;;;;;;;5031259;28;20471;-76
2023/03/21 22:06:06;;;;;;;9.10;5.60;;;;;;;;;;5031516;28;20018;-75
2023/03/21 22:08:32;;;;;;;10.48;5.55;;;;;;;;;;5031634;28;20034;-74
2023/03/21 22:11:02;;;;;;;10.68;6.05;;;;;;;;;;5031707;28;20033;-75
2023/03/21 22:13:28;;;;;;;11.60;6.20;;;;;;;;;;5031977;28;20029;-75
2023/03/21 22:15:54;;;;;;;9.40;5.55;;;;;;;;;;5031649;28;20036;-75
2023/03/21 22:18:20;;;;;;;11.45;6.10;;;;;;;;;;5031520;28;20393;-75
2023/03/21 22:20:46;;;;;;;12.35;6.50;;;;;;;;;;5031456;28;20021;-74
2023/03/21 22:23:12;;;;;;;12.85;6.10;;;;;;;;;;5031460;28;20136;-75
2023/03/21 22:25:38;;;;;;;12.65;6.43;;;;;;;;;;5031651;28;20041;-76
2023/03/21 22:28:05;;;;;;;11.70;6.45;;;;;;;;;;5031672;28;20029;-76
2023/03/21 22:30:31;;;;;;;10.70;6.97;;;;;;;;;;5031532;28;20030;-76
2023/03/21 22:32:57;;;;;;;13.75;6.70;;;;;;;;;;5031795;28;20029;-76
2023/03/21 22:35:23;;;;;;;11.90;6.22;;;;;;;;;;5031998;28;20075;-77
2023/03/21 22:37:49;;;;;;;12.10;6.78;;;;;;;;;;5031347;28;20481;-76
2023/03/21 22:40:16;;;;;;;11.18;6.30;;;;;;;;;;5031655;28;20424;-76
2023/03/21 22:42:42;;;;;;;7.55;5.90;;;;;;;;;;5031352;28;20471;-76
2023/03/21 22:45:10;;;;;;;11.07;6.13;;;;;;;;;;5034366;28;20087;-75
2023/03/21 22:47:36;;;;;;;8.20;5.80;;;;;;;;;;5035007;28;20470;-76
2023/03/21 22:50:03;;;;;;;7.85;5.90;;;;;;;;;;5035032;28;20389;-75
2023/03/21 22:52:29;;;;;;;11.25;5.75;;;;;;;;;;5035056;28;20524;-75
2023/03/21 22:54:55;;;;;;;8.13;5.50;;;;;;;;;;5034988;28;20029;-75
2023/03/21 22:57:21;;;;;;;10.07;6.30;;;;;;;;;;5034722;28;20045;-75
2023/03/21 22:59:48;;;;;;;8.73;5.88;;;;;;;;;;5036060;28;20033;-74
2023/03/21 23:02:14;;;;;;;8.18;5.75;;;;;;;;;;5037868;28;20021;-74
2023/03/21 23:04:41;;;;;;;11.55;5.68;;;;;;;;;;5035961;28;20079;-76
2023/03/21 23:07:07;;;;;;;9.63;6.07;;;;;;;;;;5035156;28;20095;-75
2023/03/21 23:09:33;;;;;;;9.95;5.60;;;;;;;;;;5034905;28;20470;-76
2023/03/21 23:12:00;;;;;;;9.10;5.85;;;;;;;;;;5034986;28;20486;-75
2023/03/21 23:14:25;;;;;;;7.93;5.90;;;;;;;;;;5035203;28;20068;-75
2023/03/21 23:16:52;;;;;;;8.35;5.93;;;;;;;;;;5034523;28;20061;-75
2023/03/21 23:19:19;;;;;;;8.60;5.75;;;;;;;;;;5034682;28;20032;-75
2023/03/21 23:21:46;;;;;;;8.57;5.90;;;;;;;;;;5034196;28;20060;-75
2023/03/21 23:24:12;;;;;;;10.02;5.95;;;;;;;;;;5035131;28;20030;-75
2023/03/21 23:26:38;;;;;;;9.52;5.82;;;;;;;;;;5034484;28;20076;-74
2023/03/21 23:29:06;;;;;;;11.50;6.35;;;;;;;;;;5034326;28;20029;-75
2023/03/21 23:31:33;;;;;;;8.85;5.68;;;;;;;;;;5034136;28;20017;-75
2023/03/21 23:34:00;;;;;;;9.45;5.70;;;;;;;;;;5034438;28;20107;-74
2023/03/21 23:36:26;;;;;;;8.70;6.15;;;;;;;;;;5034295;28;20030;-75
2023/03/21 23:38:52;;;;;;;9.70;6.10;;;;;;;;;;5034131;28;20108;-76
2023/03/21 23:41:19;;;;;;;9.27;5.70;;;;;;;;;;5034534;28;20088;-75
2023/03/21 23:43:46;;;;;;;9.18;5.97;;;;;;;;;;5034124;28;20047;-75
2023/03/21 23:46:13;;;;;;;9.02;6.40;;;;;;;;;;5033995;28;20455;-76
2023/03/21 23:48:40;;;;;;;8.82;6.35;;;;;;;;;;5033848;28;20537;-75
2023/03/21 23:51:06;;;;;;;9.85;6.72;;;;;;;;;;5034163;28;20083;-75
2023/03/21 23:53:32;;;;;;;11.98;7.47;;;;;;;;;;5033833;28;20087;-76
2023/03/21 23:56:00;;;;;;;12.23;8.07;;;;;;;;;;5034104;28;20430;-75
2023/03/21 23:58:27;;;;;;;10.05;7.68;;;;;;;;;;5033751;28;20062;-75
